Time;durP1;ratioP1;P1;durP2;ratioP2;P2;SDS_P1;SDS_P2;PMS_P1;PMS_P2;Temp;Humidity;BMP_temperature;BMP_pressure;BME280_temperature;BME280_humidity;BME280_pressure;Samples;Min_cycle;Max_cycle;Signal;HPM_P1;HPM_P2
2023/03/29 00:00:09;;;;;;;;;;;6.20;66.20;;;;;;5961787;23;19920;-77
2023/03/29 00:02:35;;;;;;;;;;;6.20;66.30;;;;;;5961070;23;19909;-77
2023/03/29 00:05:00;;;;;;;;;;;6.20;66.30;;;;;;5962880;23;19920;-78
2023/03/29 00:07:28;;;;;;;;;;;6.20;66.30;;;;;;5962656;23;20509;-78
2023/03/29 00:09:54;;;;;;;;;;;6.20;66.30;;;;;;5963504;23;20349;-77
2023/03/29 00:12:20;;;;;;;;;;;6.20;66.30;;;;;;5959311;23;19912;-78
2023/03/29 00:14:45;;;;;;;;;;;6.20;66.40;;;;;;5984753;23;19917;-78
2023/03/29 00:17:11;;;;;;;;;;;6.20;66.40;;;;;;5961989;23;19916;-78
2023/03/29 00:19:36;;;;;;;;;;;6.20;66.40;;;;;;5962109;23;19913;-77
2023/03/29 00:22:04;;;;;;;;;;;6.20;66.40;;;;;;5963501;23;20278;-77
2023/03/29 00:24:30;;;;;;;;;;;6.20;66.40;;;;;;5960139;23;19920;-77
2023/03/29 00:26:55;;;;;;;;;;;6.20;66.50;;;;;;5983956;23;19908;-77
2023/03/29 00:29:21;;;;;;;;;;;6.20;66.50;;;;;;5988796;23;19932;-78
2023/03/29 00:31:52;;;;;;;;;;;6.20;66.50;;;;;;5963563;23;19909;-77
2023/03/29 00:34:21;;;;;;;;;;;6.20;66.50;;;;;;5980704;23;19909;-78
2023/03/29 00:36:49;;;;;;;;;;;6.20;66.60;;;;;;5965318;23;20015;-77
2023/03/29 00:39:18;;;;;;;;;;;6.10;66.50;;;;;;5957342;23;19913;-77
2023/03/29 00:41:44;;;;;;;;;;;6.10;66.50;;;;;;5963479;23;20455;-78
2023/03/29 00:44:28;;;;;;;;;;;6.10;66.50;;;;;;5963393;23;20766;-78
2023/03/29 00:46:54;;;;;;;;;;;6.10;66.60;;;;;;5961932;23;20510;-77
2023/03/29 00:49:20;;;;;;;;;;;6.10;66.60;;;;;;5963821;23;19990;-77
2023/03/29 00:51:45;;;;;;;;;;;6.10;66.60;;;;;;5961211;23;19913;-77
2023/03/29 00:54:13;;;;;;;;;;;6.10;66.60;;;;;;5956044;23;19916;-77
2023/03/29 00:56:38;;;;;;;;;;;6.10;66.60;;;;;;5960705;23;19913;-78
2023/03/29 00:59:04;;;;;;;;;;;6.10;66.60;;;;;;5965257;23;19967;-77
2023/03/29 01:01:32;;;;;;;;;;;6.10;66.70;;;;;;5966786;23;19913;-77
2023/03/29 01:04:16;;;;;;;;;;;6.10;66.70;;;;;;5965688;23;19913;-77
2023/03/29 01:06:44;;;;;;;;;;;6.10;66.70;;;;;;5964502;23;19996;-77
2023/03/29 01:09:09;;;;;;;;;;;6.10;66.70;;;;;;5962384;23;20000;-78
2023/03/29 01:11:36;;;;;;;;;;;6.10;66.70;;;;;;5961680;23;19941;-77
2023/03/29 01:14:03;;;;;;;;;;;6.10;66.70;;;;;;5961454;23;19983;-77
2023/03/29 01:16:29;;;;;;;;;;;6.10;66.70;;;;;;5981929;23;19931;-78
2023/03/29 01:18:57;;;;;;;;;;;6.10;66.70;;;;;;5962877;23;19924;-77
2023/03/29 01:21:31;;;;;;;;;;;6.10;66.80;;;;;;5960650;23;19913;-77
2023/03/29 01:24:15;;;;;;;;;;;6.10;66.80;;;;;;5983127;23;19916;-78
2023/03/29 01:26:41;;;;;;;;;;;6.10;66.80;;;;;;5964296;23;19936;-77
2023/03/29 01:29:10;;;;;;;;;;;6.10;66.80;;;;;;5961695;23;19909;-77
2023/03/29 01:31:36;;;;;;;;;;;6.10;66.80;;;;;;5983449;23;20272;-77
2023/03/29 01:34:06;;;;;;;;;;;6.10;67.60;;;;;;5962387;23;19909;-77
2023/03/29 01:36:36;;;;;;;;;;;6.10;66.80;;;;;;5960202;23;19905;-77
2023/03/29 01:39:02;;;;;;;;;;;6.00;66.80;;;;;;5983355;23;19936;-78
2023/03/29 01:41:54;;;;;;;;;;;6.00;66.90;;;;;;5982488;23;19909;-77
2023/03/29 01:44:20;;;;;;;;;;;6.10;66.90;;;;;;5962889;23;20642;-78
2023/03/29 01:46:46;;;;;;;;;;;6.00;66.80;;;;;;5961747;23;19921;-78
2023/03/29 01:49:31;;;;;;;;;;;6.00;66.90;;;;;;5963362;23;19976;-77
2023/03/29 01:51:58;;;;;;;;;;;6.00;66.90;;;;;;5962453;23;19980;-78
2023/03/29 01:54:27;;;;;;;;;;;6.00;66.90;;;;;;5984238;23;20985;-77
2023/03/29 01:56:53;;;;;;;;;;;6.00;66.90;;;;;;5950683;23;20280;-77
2023/03/29 01:59:22;;;;;;;;;;;6.00;67.00;;;;;;5984210;23;19917;-78
2023/03/29 02:01:48;;;;;;;;;;;6.00;67.00;;;;;;5985256;23;19936;-77
2023/03/29 02:04:15;;;;;;;;;;;6.00;67.00;;;;;;5982018;23;20328;-78
2023/03/29 02:06:41;;;;;;;;;;;6.00;67.00;;;;;;5959188;23;20565;-77
2023/03/29 02:09:07;;;;;;;;;;;6.00;67.10;;;;;;5961670;23;19936;-77
2023/03/29 02:11:32;;;;;;;;;;;6.00;67.10;;;;;;5959376;23;20437;-77
2023/03/29 02:13:58;;;;;;;;;;;5.90;67.00;;;;;;5959850;23;19920;-77
2023/03/29 02:16:23;;;;;;;;;;;6.00;67.10;;;;;;5963616;23;20446;-77
2023/03/29 02:18:49;;;;;;;;;;;5.90;67.00;;;;;;5962083;23;20005;-76
2023/03/29 02:21:17;;;;;;;;;;;6.00;67.10;;;;;;5959398;23;19965;-77
2023/03/29 02:23:44;;;;;;;;;;;6.00;67.20;;;;;;5960416;23;19913;-78
2023/03/29 02:26:09;;;;;;;;;;;6.00;67.20;;;;;;5959834;23;19913;-78
2023/03/29 02:28:35;;;;;;;;;;;5.90;67.10;;;;;;5960315;23;19988;-77
2023/03/29 02:31:03;;;;;;;;;;;5.90;67.10;;;;;;5960425;23;19909;-77
2023/03/29 02:33:30;;;;;;;;;;;5.90;67.20;;;;;;5961361;23;19909;-77
2023/03/29 02:36:03;;;;;;;;;;;5.90;67.20;;;;;;5960090;23;19947;-78
2023/03/29 02:38:30;;;;;;;;;;;5.90;67.20;;;;;;5961685;23;19913;-77
2023/03/29 02:40:55;;;;;;;;;;;5.90;67.20;;;;;;5963001;23;19913;-78
2023/03/29 02:43:21;;;;;;;;;;;5.90;67.20;;;;;;5962555;23;19999;-77
2023/03/29 02:45:47;;;;;;;;;;;5.90;67.20;;;;;;5982265;23;19921;-78
2023/03/29 02:48:13;;;;;;;;;;;5.90;67.20;;;;;;5961335;23;19968;-78
2023/03/29 02:50:39;;;;;;;;;;;5.90;67.20;;;;;;5953307;23;19917;-77
2023/03/29 02:53:06;;;;;;;;;;;5.90;67.20;;;;;;5979232;23;20000;-76
2023/03/29 02:55:33;;;;;;;;;;;5.90;68.10;;;;;;5961015;23;19916;-77
2023/03/29 02:58:02;;;;;;;;;;;5.90;67.30;;;;;;5982080;23;19931;-77
2023/03/29 03:00:27;;;;;;;;;;;5.90;67.30;;;;;;5960413;23;19948;-77
2023/03/29 03:02:53;;;;;;;;;;;5.90;67.30;;;;;;5960000;23;20386;-78
2023/03/29 03:05:19;;;;;;;;;;;5.90;67.30;;;;;;5961980;23;19949;-77
2023/03/29 03:07:45;;;;;;;;;;;5.90;67.40;;;;;;5988460;23;19909;-78
2023/03/29 03:10:11;;;;;;;;;;;5.80;67.30;;;;;;5985643;23;19916;-77
2023/03/29 03:12:36;;;;;;;;;;;5.80;67.40;;;;;;5952075;23;19965;-77
2023/03/29 03:15:04;;;;;;;;;;;5.80;67.40;;;;;;5962419;23;19943;-77
2023/03/29 03:17:32;;;;;;;;;;;5.80;67.40;;;;;;5963913;23;19913;-77
2023/03/29 03:19:57;;;;;;;;;;;5.80;67.40;;;;;;5964208;23;20643;-77
2023/03/29 03:22:23;;;;;;;;;;;5.80;67.40;;;;;;5970161;23;19909;-78
2023/03/29 03:24:49;;;;;;;;;;;5.80;67.40;;;;;;5968689;23;19913;-77
2023/03/29 03:27:15;;;;;;;;;;;5.80;67.40;;;;;;5962721;23;19909;-77
2023/03/29 03:29:41;;;;;;;;;;;5.80;67.40;;;;;;5965495;23;19909;-77
2023/03/29 03:32:06;;;;;;;;;;;5.80;67.40;;;;;;5962590;23;19913;-77
2023/03/29 03:34:33;;;;;;;;;;;5.80;67.50;;;;;;5942148;23;19992;-77
2023/03/29 03:37:00;;;;;;;;;;;5.80;67.50;;;;;;5986615;23;19921;-78
2023/03/29 03:39:26;;;;;;;;;;;5.80;67.50;;;;;;5965425;23;20725;-77
2023/03/29 03:41:51;;;;;;;;;;;5.70;67.40;;;;;;5987995;23;19913;-77
2023/03/29 03:44:17;;;;;;;;;;;5.80;67.60;;;;;;5986717;23;19940;-77
2023/03/29 03:46:42;;;;;;;;;;;5.70;67.50;;;;;;5965563;23;20286;-77
2023/03/29 03:49:07;;;;;;;;;;;5.80;67.60;;;;;;5964957;23;19959;-77
2023/03/29 03:51:33;;;;;;;;;;;5.70;67.60;;;;;;5989481;23;20596;-78
2023/03/29 03:53:58;;;;;;;;;;;5.70;67.60;;;;;;5928237;23;19928;-77
2023/03/29 03:56:24;;;;;;;;;;;5.70;67.60;;;;;;5984883;23;19917;-78
2023/03/29 03:58:50;;;;;;;;;;;5.70;67.60;;;;;;5966033;23;19921;-77
2023/03/29 04:01:15;;;;;;;;;;;5.70;67.60;;;;;;5965150;23;19920;-77
2023/03/29 04:03:41;;;;;;;;;;;5.70;67.60;;;;;;5958957;23;19923;-76
2023/03/29 04:06:06;;;;;;;;;;;5.70;67.60;;;;;;5960528;23;20640;-77
2023/03/29 04:08:32;;;;;;;;;;;5.60;67.70;;;;;;5965693;23;19913;-77
2023/03/29 04:10:57;;;;;;;;;;;5.60;67.90;;;;;;5966711;23;20507;-77
2023/03/29 04:13:23;;;;;;;;;;;5.60;67.70;;;;;;5961048;23;19917;-77
2023/03/29 04:15:52;;;;;;;;;;;5.60;67.60;;;;;;5961523;23;19946;-77
2023/03/29 04:18:18;;;;;;;;;;;5.60;67.70;;;;;;5961668;23;19917;-76
2023/03/29 04:20:44;;;;;;;;;;;5.60;67.70;;;;;;5961441;23;20508;-77
2023/03/29 04:23:10;;;;;;;;;;;5.60;67.70;;;;;;5963747;23;20295;-77
2023/03/29 04:25:35;;;;;;;;;;;5.60;67.80;;;;;;5950617;23;19913;-77
2023/03/29 04:28:01;;;;;;;;;;;5.60;67.80;;;;;;5963770;23;19913;-76
2023/03/29 04:30:26;;;;;;;;;;;5.60;67.80;;;;;;5965637;23;20000;-77
2023/03/29 04:32:52;;;;;;;;;;;5.50;67.80;;;;;;5963792;23;20350;-77
2023/03/29 04:35:17;;;;;;;;;;;5.50;67.90;;;;;;5982799;23;20496;-77
2023/03/29 04:37:43;;;;;;;;;;;5.50;67.80;;;;;;5985666;23;19915;-76
2023/03/29 04:40:09;;;;;;;;;;;5.50;67.90;;;;;;5966445;23;19921;-77
2023/03/29 04:42:34;;;;;;;;;;;5.50;67.90;;;;;;5961185;23;19924;-76
2023/03/29 04:45:00;;;;;;;;;;;5.50;67.90;;;;;;5961498;23;19916;-77
2023/03/29 04:47:28;;;;;;;;;;;5.50;67.90;;;;;;5985366;23;20681;-77
2023/03/29 04:49:54;;;;;;;;;;;5.50;67.90;;;;;;5980020;23;19913;-77
2023/03/29 04:52:19;;;;;;;;;;;5.50;67.90;;;;;;5984262;23;19916;-77
2023/03/29 04:54:45;;;;;;;;;;;5.50;67.90;;;;;;5964891;23;19913;-77
2023/03/29 04:57:10;;;;;;;;;;;5.50;68.00;;;;;;5972886;23;19947;-78
2023/03/29 04:59:36;;;;;;;;;;;5.40;68.00;;;;;;5964394;23;19913;-77
2023/03/29 05:02:03;;;;;;;;;;;5.40;68.00;;;;;;5964602;23;19913;-76
2023/03/29 05:04:29;;;;;;;;;;;5.50;68.00;;;;;;5963009;23;19910;-77
2023/03/29 05:06:56;;;;;;;;;;;5.40;68.00;;;;;;5964737;23;19937;-77
2023/03/29 05:09:22;;;;;;;;;;;5.40;68.00;;;;;;5983528;23;19916;-77
2023/03/29 05:11:47;;;;;;;;;;;5.40;68.00;;;;;;5964530;23;20024;-77
2023/03/29 05:14:13;;;;;;;;;;;5.40;68.10;;;;;;5964188;23;20273;-76
2023/03/29 05:16:39;;;;;;;;;;;5.40;68.10;;;;;;5963495;23;19909;-76
2023/03/29 05:19:05;;;;;;;;;;;5.40;68.10;;;;;;5963009;23;19913;-76
2023/03/29 05:21:32;;;;;;;;;;;5.40;68.10;;;;;;5982338;23;20384;-77
2023/03/29 05:23:57;;;;;;;;;;;5.40;68.10;;;;;;5964981;23;19913;-77
2023/03/29 05:26:23;;;;;;;;;;;5.40;68.10;;;;;;5985233;23;19920;-77
2023/03/29 05:28:49;;;;;;;;;;;5.30;68.10;;;;;;5951996;23;20414;-75
2023/03/29 05:31:15;;;;;;;;;;;5.30;68.10;;;;;;5963529;23;19913;-77
2023/03/29 05:33:41;;;;;;;;;;;5.40;68.20;;;;;;5961510;23;19940;-77
2023/03/29 05:36:07;;;;;;;;;;;5.40;68.20;;;;;;5963664;23;20791;-77
2023/03/29 05:38:33;;;;;;;;;;;5.30;68.20;;;;;;5942009;23;19912;-78
2023/03/29 05:40:59;;;;;;;;;;;5.30;68.20;;;;;;5984123;23;20130;-77
2023/03/29 05:43:24;;;;;;;;;;;5.30;68.20;;;;;;5964289;23;19920;-77
2023/03/29 05:45:53;;;;;;;;;;;5.30;68.20;;;;;;5962129;23;19972;-77
2023/03/29 05:48:19;;;;;;;;;;;5.30;68.20;;;;;;5963237;23;19913;-77
2023/03/29 05:50:45;;;;;;;;;;;5.30;68.20;;;;;;5966900;23;19909;-76
2023/03/29 05:53:11;;;;;;;;;;;5.30;68.30;;;;;;5964616;23;19909;-77
2023/03/29 05:55:36;;;;;;;;;;;5.30;68.30;;;;;;5970924;23;20272;-77
2023/03/29 05:58:02;;;;;;;;;;;5.30;68.30;;;;;;5988940;23;19909;-77
2023/03/29 06:00:28;;;;;;;;;;;5.30;68.30;;;;;;5963999;23;19998;-77
2023/03/29 06:02:57;;;;;;;;;;;5.30;68.40;;;;;;5964542;23;19909;-77
2023/03/29 06:05:23;;;;;;;;;;;5.30;68.30;;;;;;5965493;23;19920;-77
2023/03/29 06:07:48;;;;;;;;;;;5.30;68.40;;;;;;5962311;23;19932;-77
2023/03/29 06:10:14;;;;;;;;;;;5.40;68.40;;;;;;5953429;23;19912;-77
2023/03/29 06:12:40;;;;;;;;;;;5.40;68.40;;;;;;5960741;23;19916;-77
2023/03/29 06:15:07;;;;;;;;;;;5.40;68.40;;;;;;5964483;23;20414;-77
2023/03/29 06:17:33;;;;;;;;;;;5.40;68.40;;;;;;5987190;23;19909;-77
2023/03/29 06:19:58;;;;;;;;;;;5.40;68.30;;;;;;5986022;23;19913;-77
2023/03/29 06:22:24;;;;;;;;;;;5.50;68.50;;;;;;5987645;23;20440;-77
2023/03/29 06:24:50;;;;;;;;;;;5.50;68.40;;;;;;5965250;23;19909;-77
2023/03/29 06:27:15;;;;;;;;;;;5.50;68.40;;;;;;5962993;23;19913;-78
2023/03/29 06:29:40;;;;;;;;;;;5.50;68.40;;;;;;5965746;23;19960;-77
2023/03/29 06:32:06;;;;;;;;;;;5.60;68.40;;;;;;5986820;23;20303;-77
2023/03/29 06:34:31;;;;;;;;;;;5.60;68.40;;;;;;5958661;23;19914;-77
2023/03/29 06:36:57;;;;;;;;;;;5.60;68.40;;;;;;5963449;23;19909;-77
2023/03/29 06:39:24;;;;;;;;;;;5.60;68.40;;;;;;5962334;23;20362;-79
2023/03/29 06:41:50;;;;;;;;;;;5.60;68.40;;;;;;5964042;23;19909;-78
2023/03/29 06:44:16;;;;;;;;;;;5.70;68.40;;;;;;5965515;23;19909;-77
2023/03/29 06:46:41;;;;;;;;;;;5.70;68.40;;;;;;5962757;23;19944;-77
2023/03/29 06:49:07;;;;;;;;;;;5.70;68.30;;;;;;5965058;23;19909;-78
2023/03/29 06:51:32;;;;;;;;;;;5.80;68.40;;;;;;5963460;23;19968;-77
2023/03/29 06:53:58;;;;;;;;;;;5.80;68.40;;;;;;5962396;23;19909;-77
2023/03/29 06:56:23;;;;;;;;;;;5.90;68.30;;;;;;5965040;23;19915;-77
2023/03/29 06:58:49;;;;;;;;;;;5.90;68.30;;;;;;5964191;23;19909;-76
2023/03/29 07:01:14;;;;;;;;;;;6.00;68.40;;;;;;5961473;23;19922;-77
2023/03/29 07:03:40;;;;;;;;;;;6.00;68.30;;;;;;5962565;23;19916;-77
2023/03/29 07:06:08;;;;;;;;;;;6.00;68.30;;;;;;5959988;23;19916;-77
2023/03/29 07:08:42;;;;;;;;;;;6.10;68.30;;;;;;5957247;23;20279;-76
2023/03/29 07:11:11;;;;;;;;;;;6.10;68.30;;;;;;5959500;23;19917;-78
2023/03/29 07:13:41;;;;;;;;;;;6.20;68.30;;;;;;5960052;23;19909;-77
2023/03/29 07:16:12;;;;;;;;;;;6.20;68.20;;;;;;5982744;23;19920;-76
2023/03/29 07:18:40;;;;;;;;;;;6.30;68.30;;;;;;5982197;23;19917;-77
2023/03/29 07:21:06;;;;;;;;;;;6.30;68.20;;;;;;5962220;23;19917;-77
2023/03/29 07:23:31;;;;;;;;;;;6.40;68.30;;;;;;5963174;23;19916;-77
2023/03/29 07:25:57;;;;;;;;;;;6.40;68.20;;;;;;5960214;23;19992;-76
2023/03/29 07:28:22;;;;;;;;;;;6.50;68.30;;;;;;5962502;23;20545;-76
2023/03/29 07:30:48;;;;;;;;;;;6.50;68.20;;;;;;5962544;23;19905;-77
2023/03/29 07:33:14;;;;;;;;;;;6.60;68.20;;;;;;5961813;23;20766;-77
2023/03/29 07:35:42;;;;;;;;;;;6.60;68.20;;;;;;5960916;23;20606;-77
2023/03/29 07:38:07;;;;;;;;;;;6.70;68.20;;;;;;5959792;23;20471;-77
2023/03/29 07:40:33;;;;;;;;;;;6.80;68.10;;;;;;5983052;23;19968;-77
2023/03/29 07:42:58;;;;;;;;;;;6.80;68.10;;;;;;5963431;23;19920;-76
2023/03/29 07:45:24;;;;;;;;;;;6.90;68.10;;;;;;5959606;23;19917;-77
2023/03/29 07:47:56;;;;;;;;;;;6.90;68.00;;;;;;5985099;23;19921;-78
2023/03/29 07:50:22;;;;;;;;;;;7.00;68.00;;;;;;5958903;23;19943;-76
2023/03/29 07:52:48;;;;;;;;;;;7.10;68.00;;;;;;5962423;23;20343;-76
2023/03/29 07:55:13;;;;;;;;;;;7.20;68.00;;;;;;5951422;23;19909;-77
2023/03/29 07:57:39;;;;;;;;;;;7.20;67.90;;;;;;5960070;23;19985;-77
2023/03/29 08:00:14;;;;;;;;;;;7.30;67.90;;;;;;5986502;23;19913;-76
2023/03/29 08:02:41;;;;;;;;;;;7.30;67.80;;;;;;5959731;23;20339;-77
2023/03/29 08:05:06;;;;;;;;;;;7.40;67.80;;;;;;5954441;23;19936;-77
2023/03/29 08:07:32;;;;;;;;;;;7.40;67.80;;;;;;5957542;23;19999;-76
2023/03/29 08:09:57;;;;;;;;;;;7.50;67.80;;;;;;5983388;23;19913;-77
2023/03/29 08:12:23;;;;;;;;;;;7.50;67.70;;;;;;5986936;23;19913;-76
2023/03/29 08:14:48;;;;;;;;;;;7.60;67.70;;;;;;5958837;23;19932;-77
2023/03/29 08:17:14;;;;;;;;;;;7.60;67.70;;;;;;5958264;23;19911;-76
2023/03/29 08:19:40;;;;;;;;;;;7.70;67.70;;;;;;5959239;23;19920;-77
2023/03/29 08:22:05;;;;;;;;;;;7.80;67.70;;;;;;5960212;23;19909;-76
2023/03/29 08:24:31;;;;;;;;;;;7.90;67.70;;;;;;5958876;23;19909;-78
2023/03/29 08:26:56;;;;;;;;;;;7.90;67.60;;;;;;5985769;23;19909;-76
2023/03/29 08:29:22;;;;;;;;;;;8.00;67.70;;;;;;5963127;23;20375;-76
2023/03/29 08:31:48;;;;;;;;;;;8.10;67.60;;;;;;5985754;23;19936;-77
2023/03/29 08:34:13;;;;;;;;;;;8.20;67.60;;;;;;5963771;23;20567;-77
2023/03/29 08:36:39;;;;;;;;;;;8.20;67.50;;;;;;5964102;23;20292;-76
2023/03/29 08:39:04;;;;;;;;;;;8.30;67.50;;;;;;5962685;23;19917;-76
2023/03/29 08:41:48;;;;;;;;;;;8.40;67.40;;;;;;5963993;23;19917;-77
2023/03/29 08:44:27;;;;;;;;;;;8.50;67.40;;;;;;5963181;23;19916;-77
2023/03/29 08:47:07;;;;;;;;;;;8.60;67.30;;;;;;5983869;23;20012;-77
2023/03/29 08:49:33;;;;;;;;;;;8.70;67.30;;;;;;5963870;23;19980;-77
2023/03/29 08:51:59;;;;;;;;;;;8.80;67.20;;;;;;5963013;23;19913;-77
2023/03/29 08:54:27;;;;;;;;;;;8.90;67.10;;;;;;5986128;23;20004;-77
2023/03/29 08:56:53;;;;;;;;;;;9.00;67.10;;;;;;5958492;23;19913;-77
2023/03/29 08:59:23;;;;;;;;;;;9.10;67.10;;;;;;5983807;23;20284;-76
2023/03/29 09:01:49;;;;;;;;;;;9.10;67.00;;;;;;5960429;23;19910;-76
2023/03/29 09:04:20;;;;;;;;;;;9.30;67.00;;;;;;5958688;23;19956;-78
2023/03/29 09:06:46;;;;;;;;;;;9.30;66.80;;;;;;5962198;23;20624;-76
2023/03/29 09:09:12;;;;;;;;;;;9.40;66.80;;;;;;5962257;23;19920;-76
2023/03/29 09:11:40;;;;;;;;;;;9.60;66.80;;;;;;5960482;23;19917;-77
2023/03/29 09:14:06;;;;;;;;;;;9.70;66.70;;;;;;5963342;23;19909;-77
2023/03/29 09:16:43;;;;;;;;;;;9.80;66.60;;;;;;5965511;23;19909;-77
2023/03/29 09:19:26;;;;;;;;;;;9.90;66.60;;;;;;5932134;23;19967;-77
2023/03/29 09:21:56;;;;;;;;;;;10.00;66.50;;;;;;5960631;23;19909;-76
2023/03/29 09:24:27;;;;;;;;;;;10.10;66.40;;;;;;5985938;23;19910;-78
2023/03/29 09:26:53;;;;;;;;;;;10.30;66.40;;;;;;5985358;23;19996;-78
2023/03/29 09:29:37;;;;;;;;;;;10.40;66.20;;;;;;5986340;23;19940;-76
2023/03/29 09:32:04;;;;;;;;;;;10.50;66.20;;;;;;5962229;23;20411;-76
2023/03/29 09:34:40;;;;;;;;;;;10.60;66.00;;;;;;5983630;23;19917;-77
2023/03/29 09:37:07;;;;;;;;;;;10.70;66.00;;;;;;5961922;23;20435;-77
2023/03/29 09:39:33;;;;;;;;;;;10.80;66.00;;;;;;5983793;23;19959;-77
2023/03/29 09:42:00;;;;;;;;;;;11.00;66.00;;;;;;5961518;23;20638;-77
2023/03/29 09:44:30;;;;;;;;;;;11.30;65.90;;;;;;5962958;23;19920;-76
2023/03/29 09:47:05;;;;;;;;;;;11.50;65.70;;;;;;5964179;23;19992;-78
2023/03/29 09:49:32;;;;;;;;;;;11.60;65.50;;;;;;5986160;23;20611;-77
2023/03/29 09:51:59;;;;;;;;;;;11.70;65.30;;;;;;5962102;23;19945;-76
2023/03/29 09:54:24;;;;;;;;;;;11.90;65.20;;;;;;5960726;23;19921;-77
2023/03/29 09:56:51;;;;;;;;;;;12.00;65.10;;;;;;5961985;23;19913;-77
2023/03/29 09:59:16;;;;;;;;;;;12.10;65.00;;;;;;5984308;23;19913;-77
2023/03/29 10:01:44;;;;;;;;;;;12.20;65.00;;;;;;5958110;23;20660;-76
2023/03/29 10:04:10;;;;;;;;;;;12.30;64.90;;;;;;5961734;23;19909;-76
2023/03/29 10:06:35;;;;;;;;;;;12.40;64.90;;;;;;5963941;23;19909;-76
2023/03/29 10:09:01;;;;;;;;;;;12.50;64.80;;;;;;5963052;23;20400;-76
2023/03/29 10:11:31;;;;;;;;;;;12.70;64.70;;;;;;5963851;23;19978;-77
2023/03/29 10:14:01;;;;;;;;;;;12.80;64.60;;;;;;5962589;23;19909;-76
2023/03/29 10:16:27;;;;;;;;;;;13.00;64.50;;;;;;5983553;23;19920;-76
2023/03/29 10:18:53;;;;;;;;;;;13.10;64.40;;;;;;5960850;23;19917;-78
2023/03/29 10:21:19;;;;;;;;;;;13.20;64.20;;;;;;5963418;23;19911;-75
2023/03/29 10:23:45;;;;;;;;;;;13.30;64.10;;;;;;5960828;23;19960;-77
2023/03/29 10:26:30;;;;;;;;;;;13.40;64.00;;;;;;5959094;23;19909;-76
2023/03/29 10:28:59;;;;;;;;;;;13.50;63.90;;;;;;5985446;23;19909;-77
2023/03/29 10:31:24;;;;;;;;;;;13.60;63.90;;;;;;5989632;23;19956;-77
2023/03/29 10:33:56;;;;;;;;;;;13.80;63.90;;;;;;5979697;23;19949;-78
2023/03/29 10:36:22;;;;;;;;;;;14.00;63.80;;;;;;5962879;23;19920;-76
2023/03/29 10:38:48;;;;;;;;;;;14.20;63.70;;;;;;5959751;23;19909;-76
2023/03/29 10:41:14;;;;;;;;;;;14.40;63.60;;;;;;5980428;23;19920;-77
2023/03/29 10:43:48;;;;;;;;;;;14.50;63.30;;;;;;5959688;23;19913;-77
2023/03/29 10:46:21;;;;;;;;;;;14.60;63.10;;;;;;5979816;23;20575;-76
2023/03/29 10:48:47;;;;;;;;;;;14.80;63.20;;;;;;5955494;23;19920;-76
2023/03/29 10:51:13;;;;;;;;;;;14.90;63.00;;;;;;5976969;23;19967;-76
2023/03/29 10:53:38;;;;;;;;;;;15.10;62.90;;;;;;5963774;23;19931;-78
2023/03/29 10:56:13;;;;;;;;;;;15.20;62.70;;;;;;5963033;23;20411;-77
2023/03/29 10:58:45;;;;;;;;;;;15.30;62.70;;;;;;5961595;23;19955;-76
2023/03/29 11:01:16;;;;;;;;;;;15.40;62.60;;;;;;5962871;23;19913;-77
2023/03/29 11:03:45;;;;;;;;;;;15.50;62.50;;;;;;5952940;23;19916;-76
2023/03/29 11:06:13;;;;;;;;;;;15.70;62.40;;;;;;5963932;23;20003;-77
2023/03/29 11:08:38;;;;;;;;;;;15.80;62.30;;;;;;5961143;23;19923;-77
2023/03/29 11:11:30;;;;;;;;;;;15.90;63.00;;;;;;5964367;23;20606;-76
2023/03/29 11:13:55;;;;;;;;;;;15.90;62.00;;;;;;5959598;23;19909;-77
2023/03/29 11:16:27;;;;;;;;;;;16.00;62.00;;;;;;5965728;23;19915;-77
2023/03/29 11:18:56;;;;;;;;;;;16.10;61.90;;;;;;5963291;23;19919;-77
2023/03/29 11:21:34;;;;;;;;;;;16.10;61.80;;;;;;5985974;23;19943;-78
2023/03/29 11:24:18;;;;;;;;;;;16.20;61.80;;;;;;5958834;23;20347;-76
2023/03/29 11:26:50;;;;;;;;;;;16.20;62.50;;;;;;5962912;23;19977;-78
2023/03/29 11:29:16;;;;;;;;;;;16.30;61.70;;;;;;5964537;23;19984;-77
2023/03/29 11:31:57;;;;;;;;;;;16.40;61.70;;;;;;5961699;23;19940;-75
2023/03/29 11:34:23;;;;;;;;;;;16.50;61.70;;;;;;5963465;23;20593;-77
2023/03/29 11:37:03;;;;;;;;;;;16.60;61.60;;;;;;5962506;23;19921;-78
2023/03/29 11:39:28;;;;;;;;;;;16.70;61.40;;;;;;5960834;23;20686;-77
2023/03/29 11:41:55;;;;;;;;;;;16.80;61.30;;;;;;5965051;23;20015;-76
2023/03/29 11:44:25;;;;;;;;;;;16.90;61.30;;;;;;5987130;23;19920;-77
2023/03/29 11:47:08;;;;;;;;;;;17.00;61.10;;;;;;5958395;23;20307;-76
2023/03/29 11:49:35;;;;;;;;;;;17.10;61.00;;;;;;5963252;23;19916;-76
2023/03/29 11:52:05;;;;;;;;;;;17.20;60.90;;;;;;5964992;23;19996;-78
2023/03/29 11:54:49;;;;;;;;;;;17.30;60.80;;;;;;5962182;23;19909;-77
2023/03/29 11:57:22;;;;;;;;;;;17.40;60.80;;;;;;5974002;23;19963;-77
2023/03/29 11:59:53;;;;;;;;;;;17.40;60.70;;;;;;5963158;23;19914;-76
2023/03/29 12:02:18;;;;;;;;;;;17.40;60.70;;;;;;5962792;23;19913;-77
2023/03/29 12:04:46;;;;;;;;;;;17.50;60.70;;;;;;5962150;23;19915;-77
2023/03/29 12:07:38;;;;;;;;;;;17.50;60.50;;;;;;5963299;23;19979;-77
2023/03/29 12:10:16;;;;;;;;;;;17.60;60.60;;;;;;5959378;23;19913;-76
2023/03/29 12:12:50;;;;;;;;;;;17.60;60.50;;;;;;5939280;23;19909;-77
2023/03/29 12:15:19;;;;;;;;;;;17.70;60.60;;;;;;5962640;23;19909;-77
2023/03/29 12:17:47;;;;;;;;;;;17.70;60.50;;;;;;5959858;23;19917;-78
2023/03/29 12:20:30;;;;;;;;;;;17.80;60.50;;;;;;5964063;23;19924;-76
2023/03/29 12:22:56;;;;;;;;;;;17.90;60.30;;;;;;5953313;23;20623;-76
2023/03/29 12:25:29;;;;;;;;;;;18.00;60.20;;;;;;5960847;23;19961;-77
2023/03/29 12:28:14;;;;;;;;;;;18.00;60.30;;;;;;5984584;23;19944;-76
2023/03/29 12:30:54;;;;;;;;;;;18.10;60.20;;;;;;5985534;23;19980;-77
2023/03/29 12:33:20;;;;;;;;;;;18.30;60.10;;;;;;5964969;23;19913;-77
2023/03/29 12:36:04;;;;;;;;;;;18.50;60.00;;;;;;5965317;23;19916;-76
2023/03/29 12:38:30;;;;;;;;;;;18.60;59.90;;;;;;5962407;23;19928;-77
2023/03/29 12:40:56;;;;;;;;;;;18.80;59.80;;;;;;5962185;23;20066;-76
2023/03/29 12:43:22;;;;;;;;;;;18.90;59.50;;;;;;5963903;23;20422;-77
2023/03/29 12:45:50;;;;;;;;;;;19.00;59.50;;;;;;5962056;23;20300;-76
2023/03/29 12:48:17;;;;;;;;;;;19.10;59.40;;;;;;5962702;23;19917;-77
2023/03/29 12:50:50;;;;;;;;;;;19.30;59.50;;;;;;5985085;23;19916;-77
2023/03/29 12:53:15;;;;;;;;;;;19.40;59.30;;;;;;5962677;23;19913;-78
2023/03/29 12:55:41;;;;;;;;;;;19.50;59.10;;;;;;5962173;23;19915;-77
2023/03/29 12:58:09;;;;;;;;;;;19.50;59.00;;;;;;5965145;23;19916;-78
2023/03/29 13:00:35;;;;;;;;;;;19.60;58.90;;;;;;5949777;23;19917;-76
2023/03/29 13:03:00;;;;;;;;;;;19.70;58.90;;;;;;5984565;23;19916;-77
2023/03/29 13:05:27;;;;;;;;;;;19.80;58.90;;;;;;5963907;23;19906;-77
2023/03/29 13:07:54;;;;;;;;;;;19.80;58.80;;;;;;5961867;23;19913;-76
2023/03/29 13:10:38;;;;;;;;;;;19.90;58.60;;;;;;5964819;23;19909;-78
2023/03/29 13:13:10;;;;;;;;;;;19.90;58.60;;;;;;5985021;23;19910;-78
2023/03/29 13:15:36;;;;;;;;;;;19.90;58.70;;;;;;5983786;23;19909;-76
2023/03/29 13:18:12;;;;;;;;;;;19.90;58.80;;;;;;5963014;23;19932;-78
2023/03/29 13:20:44;;;;;;;;;;;19.80;58.70;;;;;;5955636;23;19921;-76
2023/03/29 13:23:27;;;;;;;;;;;19.80;58.80;;;;;;5963558;23;19909;-76
2023/03/29 13:25:53;;;;;;;;;;;19.80;58.80;;;;;;5962597;23;19917;-78
2023/03/29 13:28:23;;;;;;;;;;;19.70;58.80;;;;;;5963916;23;19909;-76
2023/03/29 13:31:06;;;;;;;;;;;19.70;58.90;;;;;;5958622;23;19917;-76
2023/03/29 13:33:43;;;;;;;;;;;19.60;58.90;;;;;;5961769;23;19909;-78
2023/03/29 13:36:28;;;;;;;;;;;19.60;59.00;;;;;;5983469;23;19913;-78
2023/03/29 13:38:54;;;;;;;;;;;19.60;59.10;;;;;;5961442;23;19913;-78
2023/03/29 13:41:46;;;;;;;;;;;19.60;59.00;;;;;;5987424;23;19913;-77
2023/03/29 13:44:20;;;;;;;;;;;19.50;59.00;;;;;;5961649;23;19921;-77
2023/03/29 13:46:46;;;;;;;;;;;19.50;59.10;;;;;;5963239;23;20493;-77
2023/03/29 13:49:16;;;;;;;;;;;19.50;59.00;;;;;;5941818;23;19921;-76
2023/03/29 13:51:46;;;;;;;;;;;19.40;59.10;;;;;;5985420;23;20292;-78
2023/03/29 13:54:13;;;;;;;;;;;19.40;59.00;;;;;;5961800;23;19931;-78
2023/03/29 13:56:56;;;;;;;;;;;19.30;59.00;;;;;;5962539;23;19936;-77
2023/03/29 13:59:41;;;;;;;;;;;19.30;59.20;;;;;;5962660;23;19988;-77
2023/03/29 14:02:18;;;;;;;;;;;19.20;59.20;;;;;;5963721;23;19913;-76
2023/03/29 14:04:43;;;;;;;;;;;19.10;59.20;;;;;;5960152;23;19920;-76
2023/03/29 14:07:10;;;;;;;;;;;19.10;59.30;;;;;;5983400;23;19918;-79
2023/03/29 14:09:37;;;;;;;;;;;19.10;59.40;;;;;;5944085;23;19940;-77
2023/03/29 14:12:03;;;;;;;;;;;19.00;59.30;;;;;;5964202;23;20288;-78
2023/03/29 14:14:29;;;;;;;;;;;19.00;59.40;;;;;;5986902;23;20703;-77
2023/03/29 14:16:54;;;;;;;;;;;18.90;59.40;;;;;;5962338;23;19988;-78
2023/03/29 14:19:22;;;;;;;;;;;18.90;59.40;;;;;;5985874;23;19996;-77
2023/03/29 14:21:47;;;;;;;;;;;18.80;59.50;;;;;;5940654;23;19916;-77
2023/03/29 14:24:17;;;;;;;;;;;18.80;59.50;;;;;;5953867;23;19915;-77
2023/03/29 14:26:43;;;;;;;;;;;18.70;59.60;;;;;;5960653;23;20364;-76
2023/03/29 14:29:08;;;;;;;;;;;18.70;59.60;;;;;;5965604;23;19928;-77
2023/03/29 14:31:35;;;;;;;;;;;18.70;59.70;;;;;;5983704;23;19910;-77